createdAt,value
2019-05-11T00:01:52.171Z,101103.23
2019-05-11T00:04:24.421Z,101105.78
2019-05-11T00:06:56.607Z,101104.94
2019-05-11T00:09:28.865Z,101103.52
2019-05-11T00:12:01.079Z,101098.20
2019-05-11T00:14:33.331Z,101095.55
2019-05-11T00:17:05.588Z,101090.41
2019-05-11T00:19:37.809Z,101091.22
2019-05-11T00:22:11.359Z,101084.68
2019-05-11T00:24:43.607Z,101082.66
2019-05-11T00:27:16.066Z,101083.64
2019-05-11T00:29:48.337Z,101083.48
2019-05-11T00:32:22.808Z,101076.88
2019-05-11T00:34:55.556Z,101079.47
2019-05-11T00:37:27.766Z,101075.98
2019-05-11T00:40:13.276Z,101074.19
2019-05-11T00:42:33.988Z,101076.75
2019-05-11T00:45:06.237Z,101077.03
2019-05-11T00:47:39.508Z,101077.77
2019-05-11T00:50:11.743Z,101073.83
2019-05-11T00:52:43.778Z,101071.64
2019-05-11T00:55:16.078Z,101068.56
2019-05-11T00:57:48.342Z,101071.84
2019-05-11T01:00:20.638Z,101070.91
2019-05-11T01:02:52.969Z,101075.17
2019-05-11T01:05:25.180Z,101078.09
2019-05-11T01:07:57.403Z,101080.36
2019-05-11T01:10:41.689Z,101081.58
2019-05-11T01:13:03.539Z,101085.40
2019-05-11T01:15:35.811Z,101088.00
2019-05-11T01:18:08.095Z,101085.84
2019-05-11T01:20:40.344Z,101089.12
2019-05-11T01:23:12.615Z,101081.49
2019-05-11T01:25:44.830Z,101084.09
2019-05-11T01:28:17.129Z,101086.69
2019-05-11T01:30:49.336Z,101089.97
2019-05-11T01:33:21.568Z,101084.70
2019-05-11T01:35:53.804Z,101079.58
2019-05-11T01:38:28.014Z,101079.50
2019-05-11T01:41:00.247Z,101079.86
2019-05-11T01:43:32.449Z,101074.88
2019-05-11T01:46:04.662Z,101076.45
2019-05-11T01:48:36.899Z,101077.98
2019-05-11T01:51:09.119Z,101077.77
2019-05-11T01:53:41.323Z,101075.32
2019-05-11T01:56:13.645Z,101071.50
2019-05-11T01:58:45.851Z,101075.05
2019-05-11T02:01:18.076Z,101070.09
2019-05-11T02:03:50.295Z,101063.03
2019-05-11T02:06:22.541Z,101069.52
2019-05-11T02:08:54.778Z,101072.88
2019-05-11T02:11:26.987Z,101070.68
2019-05-11T02:13:59.191Z,101074.08
2019-05-11T02:16:31.649Z,101074.71
2019-05-11T02:19:03.874Z,101078.47
2019-05-11T02:21:38.357Z,101079.14
2019-05-11T02:24:10.573Z,101075.66
2019-05-11T02:26:42.827Z,101073.42
2019-05-11T02:29:15.029Z,101073.91
2019-05-11T02:31:47.264Z,101076.91
2019-05-11T02:34:19.551Z,101082.01
2019-05-11T02:36:51.571Z,101082.41
2019-05-11T02:39:23.792Z,101085.27
2019-05-11T02:41:56.037Z,101088.00
2019-05-11T02:44:28.275Z,101089.16
2019-05-11T02:47:00.483Z,101092.92
2019-05-11T02:49:33.030Z,101096.32
2019-05-11T02:52:05.255Z,101095.30
2019-05-11T02:54:37.462Z,101093.72
2019-05-11T02:57:09.711Z,101096.18
2019-05-11T02:59:41.925Z,101098.28
2019-05-11T03:02:14.119Z,101091.22
2019-05-11T03:04:46.416Z,101089.66
2019-05-11T03:07:18.612Z,101095.16
2019-05-11T03:09:50.816Z,101104.23
2019-05-11T03:12:25.066Z,101106.42
2019-05-11T03:14:57.302Z,101101.91
2019-05-11T03:17:31.591Z,101103.42
2019-05-11T03:20:03.797Z,101105.70
2019-05-11T03:22:36.061Z,101106.05
2019-05-11T03:25:08.261Z,101104.84
2019-05-11T03:27:40.476Z,101107.20
2019-05-11T03:30:12.749Z,101113.69
2019-05-11T03:32:44.933Z,101114.34
2019-05-11T03:35:16.993Z,101111.48
2019-05-11T03:37:49.188Z,101113.49
2019-05-11T03:40:21.436Z,101115.36
2019-05-11T03:42:53.671Z,101123.14
2019-05-11T03:45:25.888Z,101120.86
2019-05-11T03:47:58.104Z,101117.23
2019-05-11T03:50:32.455Z,101128.50
2019-05-11T03:53:04.675Z,101127.41
2019-05-11T03:55:36.876Z,101126.83
2019-05-11T03:58:09.108Z,101127.23
2019-05-11T04:00:41.329Z,101128.06
2019-05-11T04:03:13.536Z,101133.96
2019-05-11T04:05:45.783Z,101136.98
2019-05-11T04:08:17.988Z,101135.20
2019-05-11T04:10:50.222Z,101138.28
2019-05-11T04:13:23.880Z,101139.75
2019-05-11T04:15:56.131Z,101138.86
2019-05-11T04:18:28.396Z,101144.93
2019-05-11T04:21:00.566Z,101144.59
2019-05-11T04:23:33.083Z,101143.63
2019-05-11T04:26:07.564Z,101143.72
2019-05-11T04:28:39.836Z,101143.38
2019-05-11T04:31:12.076Z,101143.03
2019-05-11T04:33:44.382Z,101152.28
2019-05-11T04:36:16.648Z,101152.02
2019-05-11T04:38:49.173Z,101152.71
2019-05-11T04:41:21.422Z,101157.98
2019-05-11T04:43:53.643Z,101156.25
2019-05-11T04:46:25.855Z,101165.06
2019-05-11T04:48:58.207Z,101158.95
2019-05-11T04:51:30.474Z,101160.62
2019-05-11T04:54:02.701Z,101159.06
2019-05-11T04:56:34.987Z,101164.97
2019-05-11T04:59:07.157Z,101167.70
2019-05-11T05:01:39.703Z,101160.34
2019-05-11T05:04:14.483Z,101166.30
2019-05-11T05:06:58.834Z,101169.88
2019-05-11T05:09:20.090Z,101174.30
2019-05-11T05:11:52.348Z,101173.06
2019-05-11T05:14:24.614Z,101174.44
2019-05-11T05:16:56.830Z,101181.06
2019-05-11T05:19:29.124Z,101190.50
2019-05-11T05:22:01.375Z,101189.33
2019-05-11T05:24:33.613Z,101194.66
2019-05-11T05:27:05.848Z,101194.80
2019-05-11T05:29:38.322Z,101193.45
2019-05-11T05:32:10.532Z,101195.70
2019-05-11T05:34:42.811Z,101203.44
2019-05-11T05:37:15.085Z,101201.95
2019-05-11T05:39:47.275Z,101203.88
2019-05-11T05:42:19.495Z,101208.52
2019-05-11T05:44:51.730Z,101211.58
2019-05-11T05:47:23.973Z,101210.00
2019-05-11T05:49:56.161Z,101215.63
2019-05-11T05:52:28.413Z,101214.31
2019-05-11T05:55:00.630Z,101214.87
2019-05-11T05:57:32.868Z,101222.52
2019-05-11T06:00:05.115Z,101220.17
2019-05-11T06:02:37.405Z,101219.77
2019-05-11T06:05:09.671Z,101218.39
2019-05-11T06:07:43.908Z,101220.99
2019-05-11T06:10:16.176Z,101223.39
2019-05-11T06:12:48.401Z,101229.33
2019-05-11T06:15:20.658Z,101220.28
2019-05-11T06:17:52.920Z,101231.17
2019-05-11T06:20:25.147Z,101232.51
2019-05-11T06:22:57.389Z,101238.11
2019-05-11T06:25:30.019Z,101246.05
2019-05-11T06:28:02.208Z,101244.53
2019-05-11T06:30:34.396Z,101253.77
2019-05-11T06:33:06.666Z,101243.67
2019-05-11T06:35:38.869Z,101250.81
2019-05-11T06:38:11.104Z,101260.41
2019-05-11T06:40:43.651Z,101264.17
2019-05-11T06:43:17.895Z,101272.58
2019-05-11T06:45:50.149Z,101269.08
2019-05-11T06:48:23.802Z,101267.03
2019-05-11T06:50:56.045Z,101275.23
2019-05-11T06:53:28.278Z,101277.06
2019-05-11T06:56:00.555Z,101284.75
2019-05-11T06:58:32.755Z,101287.61
2019-05-11T07:01:05.034Z,101288.73
2019-05-11T07:03:37.295Z,101292.45
2019-05-11T07:06:09.515Z,101285.11
2019-05-11T07:08:42.035Z,101294.00
2019-05-11T07:11:14.262Z,101299.25
2019-05-11T07:13:46.589Z,101295.73
2019-05-11T07:16:18.819Z,101297.20
2019-05-11T07:18:51.031Z,101299.84
2019-05-11T07:21:23.330Z,101312.98
2019-05-11T07:23:55.536Z,101317.74
2019-05-11T07:26:27.754Z,101323.99
2019-05-11T07:29:00.028Z,101321.92
2019-05-11T07:31:32.356Z,101326.20
2019-05-11T07:34:04.564Z,101328.56
2019-05-11T07:36:39.099Z,101327.64
2019-05-11T07:39:11.613Z,101333.13
2019-05-11T07:41:43.834Z,101335.59
2019-05-11T07:44:16.043Z,101339.32
2019-05-11T07:46:48.456Z,101339.05
2019-05-11T07:49:23.430Z,101339.53
2019-05-11T07:51:58.667Z,101343.00
2019-05-11T07:54:31.206Z,101341.55
2019-05-11T07:57:03.439Z,101349.91
2019-05-11T07:59:38.004Z,101349.64
2019-05-11T08:02:09.683Z,101345.81
2019-05-11T08:04:41.930Z,101354.86
2019-05-11T08:07:14.124Z,101357.47
2019-05-11T08:09:48.282Z,101359.10
2019-05-11T08:12:20.320Z,101363.17
2019-05-11T08:15:02.968Z,101369.88
2019-05-11T08:17:28.550Z,101371.08
2019-05-11T08:20:00.519Z,101380.31
2019-05-11T08:22:32.734Z,101375.20
2019-05-11T08:25:05.194Z,101378.66
2019-05-11T08:27:37.943Z,101376.22
2019-05-11T08:30:10.196Z,101380.38
2019-05-11T08:32:42.449Z,101388.72
2019-05-11T08:35:15.029Z,101393.89
2019-05-11T08:37:48.409Z,101400.82
2019-05-11T08:40:20.691Z,101403.36
2019-05-11T08:42:52.927Z,101407.64
2019-05-11T08:45:27.738Z,101408.36
2019-05-11T08:47:59.117Z,101414.05
2019-05-11T08:50:32.584Z,101417.56
2019-05-11T08:53:04.797Z,101416.98
2019-05-11T08:55:38.223Z,101417.56
2019-05-11T08:58:11.003Z,101423.77
2019-05-11T09:00:43.338Z,101434.72
2019-05-11T09:03:17.874Z,101440.57
2019-05-11T09:05:49.753Z,101455.22
2019-05-11T09:08:21.859Z,101457.25
2019-05-11T09:10:54.277Z,101451.10
2019-05-11T09:13:27.879Z,101465.13
2019-05-11T09:16:00.482Z,101461.75
2019-05-11T09:18:32.779Z,101459.95
2019-05-11T09:21:08.166Z,101469.92
2019-05-11T09:23:40.843Z,101467.23
2019-05-11T09:26:13.267Z,101468.54
2019-05-11T09:28:47.600Z,101468.59
2019-05-11T09:31:19.653Z,101469.56
2019-05-11T09:33:52.340Z,101467.19
2019-05-11T09:36:24.656Z,101467.20
2019-05-11T09:38:58.133Z,101468.19
2019-05-11T09:41:30.550Z,101479.64
2019-05-11T09:44:02.808Z,101484.05
2019-05-11T09:46:35.005Z,101487.86
2019-05-11T09:49:08.340Z,101491.84
2019-05-11T09:51:40.576Z,101494.00
2019-05-11T09:54:12.637Z,101499.97
2019-05-11T09:56:44.923Z,101507.02
2019-05-11T09:59:17.910Z,101500.45
2019-05-11T10:01:50.430Z,101508.73
2019-05-11T10:04:22.694Z,101508.22
2019-05-11T10:06:54.931Z,101504.50
2019-05-11T10:09:28.019Z,101515.89
2019-05-11T10:12:00.407Z,101523.89
2019-05-11T10:14:32.629Z,101524.13
2019-05-11T10:17:07.595Z,101520.55
2019-05-11T10:19:39.640Z,101535.34
2019-05-11T10:22:11.978Z,101527.94
2019-05-11T10:24:44.231Z,101532.30
2019-05-11T10:27:18.733Z,101534.13
2019-05-11T10:29:50.477Z,101539.88
2019-05-11T10:32:22.761Z,101546.16
2019-05-11T10:34:54.987Z,101547.41
2019-05-11T10:37:28.290Z,101543.64
2019-05-11T10:40:00.623Z,101539.40
2019-05-11T10:42:32.857Z,101556.30
2019-05-11T10:45:05.108Z,101557.17
2019-05-11T10:47:38.206Z,101564.64
2019-05-11T10:50:10.589Z,101568.33
2019-05-11T10:52:42.812Z,101569.98
2019-05-11T10:55:15.098Z,101573.36
2019-05-11T10:57:49.363Z,101565.82
2019-05-11T11:00:21.602Z,101570.67
2019-05-11T11:02:53.860Z,101572.03
2019-05-11T11:05:27.946Z,101575.31
2019-05-11T11:08:00.065Z,101586.61
2019-05-11T11:10:32.352Z,101590.98
2019-05-11T11:13:04.809Z,101589.20
2019-05-11T11:15:38.091Z,101593.77
2019-05-11T11:18:10.573Z,101595.55
2019-05-11T11:20:42.795Z,101603.03
2019-05-11T11:23:17.236Z,101607.73
2019-05-11T11:25:49.252Z,101606.06
2019-05-11T11:28:21.507Z,101610.55
2019-05-11T11:30:53.741Z,101608.47
2019-05-11T11:33:27.708Z,101613.88
2019-05-11T11:36:00.158Z,101613.20
2019-05-11T11:38:32.348Z,101609.53
2019-05-11T11:41:04.582Z,101609.90
2019-05-11T11:43:37.770Z,101615.88
2019-05-11T11:46:10.218Z,101616.63
2019-05-11T11:48:43.552Z,101622.34
2019-05-11T11:51:15.742Z,101636.16
2019-05-11T11:53:48.227Z,101640.16
2019-05-11T11:56:20.570Z,101640.16
2019-05-11T11:58:52.798Z,101644.16
2019-05-11T12:01:25.045Z,101644.54
2019-05-11T12:03:58.115Z,101653.05
2019-05-11T12:06:30.387Z,101665.85
2019-05-11T12:09:02.609Z,101667.48
2019-05-11T12:11:34.909Z,101666.34
2019-05-11T12:14:08.675Z,101676.88
2019-05-11T12:16:41.858Z,101689.88
2019-05-11T12:19:14.756Z,101686.11
2019-05-11T12:21:48.363Z,101688.97
2019-05-11T12:24:21.436Z,101695.69
2019-05-11T12:26:54.284Z,101709.27
2019-05-11T12:29:28.181Z,101705.59
2019-05-11T12:32:02.114Z,101709.31
2019-05-11T12:34:35.027Z,101720.56
2019-05-11T12:37:08.518Z,101722.02
2019-05-11T12:39:41.621Z,101715.63
2019-05-11T12:42:14.426Z,101724.23
2019-05-11T12:44:48.158Z,101723.34
2019-05-11T12:47:24.984Z,101730.52
2019-05-11T12:49:55.587Z,101730.89
2019-05-11T12:52:28.398Z,101744.28
2019-05-11T12:55:01.243Z,101748.19
2019-05-11T12:57:34.533Z,101751.11
2019-05-11T13:00:08.609Z,101753.84
2019-05-11T13:02:42.294Z,101761.02
2019-05-11T13:05:15.103Z,101766.06
2019-05-11T13:07:48.367Z,101768.04
2019-05-11T13:10:21.426Z,101781.27
2019-05-11T13:12:54.296Z,101778.16
2019-05-11T13:15:28.123Z,101782.61
2019-05-11T13:18:01.313Z,101798.41
2019-05-11T13:20:34.178Z,101795.16
2019-05-11T13:23:07.969Z,101799.91
2019-05-11T13:25:42.039Z,101808.19
2019-05-11T13:28:14.821Z,101813.20
2019-05-11T13:30:48.819Z,101818.88
2019-05-11T13:33:21.883Z,101811.42
2019-05-11T13:35:54.703Z,101820.06
2019-05-11T13:38:28.278Z,101832.09
2019-05-11T13:41:01.426Z,101822.98
2019-05-11T13:43:34.243Z,101837.45
2019-05-11T13:46:08.764Z,101834.90
2019-05-11T13:48:41.438Z,101843.70
2019-05-11T13:51:14.281Z,101843.41
2019-05-11T13:53:48.256Z,101854.65
2019-05-11T13:56:21.226Z,101858.52
2019-05-11T13:58:54.109Z,101860.09
2019-05-11T14:01:27.862Z,101850.48
2019-05-11T14:04:00.305Z,101849.63
2019-05-11T14:06:32.545Z,101861.75
2019-05-11T14:09:04.769Z,101868.70
2019-05-11T14:11:39.074Z,101883.45
2019-05-11T14:14:11.009Z,101878.97
2019-05-11T14:16:43.255Z,101878.09
2019-05-11T14:19:17.590Z,101892.34
2019-05-11T14:21:49.415Z,101891.58
2019-05-11T14:24:22.694Z,101895.43
2019-05-11T14:26:54.944Z,101905.27
2019-05-11T14:29:28.435Z,101899.66
2019-05-11T14:32:00.883Z,101908.64
2019-05-11T14:34:33.203Z,101917.18
2019-05-11T14:37:05.406Z,101919.70
2019-05-11T14:39:38.322Z,101924.18
2019-05-11T14:42:10.813Z,101927.41
2019-05-11T14:44:43.029Z,101928.33
2019-05-11T14:47:17.749Z,101943.16
2019-05-11T14:49:49.240Z,101943.25
2019-05-11T14:52:21.494Z,101953.97
2019-05-11T14:54:53.712Z,101953.62
2019-05-11T14:57:27.856Z,101959.39
2019-05-11T14:59:59.881Z,101974.53
2019-05-11T15:02:32.109Z,101972.44
2019-05-11T15:05:05.305Z,101981.42
2019-05-11T15:07:38.692Z,101989.78
2019-05-11T15:10:10.947Z,101983.23
2019-05-11T15:12:43.158Z,101996.03
2019-05-11T15:15:15.381Z,101996.63
2019-05-11T15:17:49.232Z,102011.25
2019-05-11T15:20:21.771Z,102018.12
2019-05-11T15:22:54.083Z,102020.50
2019-05-11T15:25:28.649Z,102023.16
2019-05-11T15:28:00.259Z,102031.45
2019-05-11T15:30:32.677Z,102035.55
2019-05-11T15:33:04.920Z,102036.23
2019-05-11T15:35:37.869Z,102046.39
2019-05-11T15:38:10.174Z,102044.83
2019-05-11T15:40:43.597Z,102048.89
2019-05-11T15:43:17.765Z,102053.34
2019-05-11T15:45:49.739Z,102065.87
2019-05-11T15:48:21.968Z,102066.24
2019-05-11T15:50:54.169Z,102063.34
2019-05-11T15:53:26.429Z,102075.97
2019-05-11T15:55:59.843Z,102082.72
2019-05-11T15:58:32.524Z,102080.94
2019-05-11T16:01:04.878Z,102087.80
2019-05-11T16:03:37.227Z,102085.25
2019-05-11T16:06:09.472Z,102084.48
2019-05-11T16:08:41.691Z,102097.53
2019-05-11T16:11:13.966Z,102100.16
2019-05-11T16:13:48.335Z,102108.89
2019-05-11T16:16:20.177Z,102113.52
2019-05-11T16:18:52.438Z,102129.42
2019-05-11T16:21:24.682Z,102130.27
2019-05-11T16:23:58.475Z,102146.54
2019-05-11T16:26:30.961Z,102150.84
2019-05-11T16:29:03.259Z,102150.51
2019-05-11T16:31:37.734Z,102158.17
2019-05-11T16:34:09.466Z,102152.75
2019-05-11T16:36:41.759Z,102159.66
2019-05-11T16:39:14.024Z,102170.27
2019-05-11T16:41:48.598Z,102170.05
2019-05-11T16:44:20.637Z,102167.58
2019-05-11T16:46:52.914Z,102172.52
2019-05-11T16:49:28.908Z,102168.48
2019-05-11T16:51:59.042Z,102187.20
2019-05-11T16:54:31.295Z,102193.73
2019-05-11T16:57:03.534Z,102207.05
2019-05-11T16:59:39.588Z,102205.92
2019-05-11T17:02:10.761Z,102217.11
2019-05-11T17:04:43.191Z,102217.38
2019-05-11T17:07:15.390Z,102207.16
2019-05-11T17:09:48.303Z,102211.16
2019-05-11T17:12:20.550Z,102226.13
2019-05-11T17:14:54.128Z,102233.50
2019-05-11T17:17:27.790Z,102241.52
2019-05-11T17:20:00.178Z,102239.34
2019-05-11T17:22:32.395Z,102237.89
2019-05-11T17:25:04.745Z,102240.63
2019-05-11T17:27:37.662Z,102243.15
2019-05-11T17:30:10.234Z,102257.86
2019-05-11T17:32:42.498Z,102270.86
2019-05-11T17:35:14.932Z,102268.93
2019-05-11T17:37:48.635Z,102268.93
2019-05-11T17:40:23.472Z,102268.79
2019-05-11T17:42:58.362Z,102282.56
2019-05-11T17:45:31.132Z,102279.20
2019-05-11T17:48:03.396Z,102279.91
2019-05-11T17:50:35.638Z,102285.08
2019-05-11T17:53:07.842Z,102291.88
2019-05-11T17:55:40.099Z,102295.71
2019-05-11T17:58:12.299Z,102293.07
2019-05-11T18:00:44.574Z,102301.27
2019-05-11T18:03:16.849Z,102302.38
2019-05-11T18:05:49.044Z,102300.26
2019-05-11T18:08:21.265Z,102311.83
2019-05-11T18:10:53.506Z,102321.33
2019-05-11T18:13:28.120Z,102322.61
2019-05-11T18:15:59.685Z,102324.72
2019-05-11T18:18:32.146Z,102330.44
2019-05-11T18:21:04.376Z,102327.39
2019-05-11T18:23:38.708Z,102334.16
2019-05-11T18:26:10.887Z,102344.03
2019-05-11T18:28:42.959Z,102343.36
2019-05-11T18:31:15.188Z,102353.19
2019-05-11T18:33:48.742Z,102363.00
2019-05-11T18:36:21.082Z,102363.36
2019-05-11T18:38:53.379Z,102365.86
2019-05-11T18:41:28.143Z,102370.02
2019-05-11T18:43:59.664Z,102364.03
2019-05-11T18:46:31.925Z,102372.73
2019-05-11T18:49:04.151Z,102380.38
2019-05-11T18:51:37.917Z,102387.35
2019-05-11T18:54:10.336Z,102388.58
2019-05-11T18:56:42.573Z,102392.55
2019-05-11T18:59:14.782Z,102398.73
2019-05-11T19:01:48.525Z,102400.53
2019-05-11T19:04:20.903Z,102405.60
2019-05-11T19:06:53.173Z,102409.45
2019-05-11T19:09:25.435Z,102414.76
2019-05-11T19:11:57.842Z,102415.97
2019-05-11T19:14:30.155Z,102417.95
2019-05-11T19:17:02.376Z,102429.34
2019-05-11T19:19:37.997Z,102434.23
2019-05-11T19:22:10.286Z,102429.77
2019-05-11T19:24:42.490Z,102437.06
2019-05-11T19:27:14.744Z,102441.22
2019-05-11T19:29:48.379Z,102444.66
2019-05-11T19:32:20.814Z,102452.78
2019-05-11T19:34:53.269Z,102460.15
2019-05-11T19:37:27.729Z,102464.39
2019-05-11T19:39:59.405Z,102469.44
2019-05-11T19:42:32.695Z,102474.48
2019-05-11T19:45:05.006Z,102477.73
2019-05-11T19:47:37.848Z,102480.97
2019-05-11T19:50:10.605Z,102484.55
2019-05-11T19:52:43.025Z,102488.28
2019-05-11T19:55:17.365Z,102497.63
2019-05-11T19:57:49.177Z,102503.14
2019-05-11T20:00:21.439Z,102509.09
2019-05-11T20:02:53.692Z,102514.13
2019-05-11T20:05:25.876Z,102516.12
2019-05-11T20:07:58.718Z,102513.75
2019-05-11T20:10:31.141Z,102519.80
2019-05-11T20:13:03.430Z,102516.18
2019-05-11T20:15:37.941Z,102522.29
2019-05-11T20:18:09.528Z,102522.22
2019-05-11T20:20:41.742Z,102526.75
2019-05-11T20:23:14.034Z,102527.05
2019-05-11T20:25:47.772Z,102534.40
2019-05-11T20:28:21.225Z,102537.40
2019-05-11T20:30:53.473Z,102548.11
2019-05-11T20:33:27.819Z,102553.14
2019-05-11T20:35:59.739Z,102558.86
2019-05-11T20:38:32.379Z,102562.66
2019-05-11T20:41:04.680Z,102563.78
2019-05-11T20:43:36.899Z,102566.72
2019-05-11T20:46:09.150Z,102566.61
2019-05-11T20:48:41.354Z,102565.13
2019-05-11T20:51:15.102Z,102573.16
2019-05-11T20:53:48.978Z,102575.87
2019-05-11T20:56:21.289Z,102589.33
2019-05-11T20:58:53.521Z,102588.42
2019-05-11T21:01:28.307Z,102590.20
2019-05-11T21:03:59.689Z,102599.75
2019-05-11T21:06:32.005Z,102598.84
2019-05-11T21:09:04.228Z,102603.69
2019-05-11T21:11:36.445Z,102605.28
2019-05-11T21:14:08.664Z,102611.75
2019-05-11T21:16:40.986Z,102618.84
2019-05-11T21:19:13.263Z,102623.18
2019-05-11T21:21:52.632Z,102614.06
2019-05-11T21:24:19.437Z,102622.15
2019-05-11T21:26:51.652Z,102629.67
2019-05-11T21:29:23.839Z,102634.05
2019-05-11T21:31:56.094Z,102645.42
2019-05-11T21:34:28.356Z,102652.22
2019-05-11T21:37:00.562Z,102656.59
2019-05-11T21:39:32.813Z,102655.76
2019-05-11T21:42:05.028Z,102656.84
2019-05-11T21:44:37.220Z,102664.36
2019-05-11T21:47:09.491Z,102668.34
2019-05-11T21:49:41.765Z,102667.22
2019-05-11T21:52:14.077Z,102677.63
2019-05-11T21:54:46.305Z,102684.05
2019-05-11T21:57:18.724Z,102688.17
2019-05-11T21:59:51.068Z,102684.89
2019-05-11T22:02:24.449Z,102691.63
2019-05-11T22:04:58.576Z,102693.07
2019-05-11T22:07:30.640Z,102693.41
2019-05-11T22:10:02.911Z,102698.94
2019-05-11T22:12:35.211Z,102695.89
2019-05-11T22:15:09.294Z,102706.10
2019-05-11T22:17:42.228Z,102707.83
2019-05-11T22:20:14.681Z,102711.33
2019-05-11T22:22:47.640Z,102713.36
2019-05-11T22:25:20.145Z,102711.36
2019-05-11T22:27:52.526Z,102706.06
2019-05-11T22:30:24.809Z,102711.09
2019-05-11T22:32:58.377Z,102715.31
2019-05-11T22:35:31.042Z,102719.64
2019-05-11T22:38:03.260Z,102727.66
2019-05-11T22:40:35.479Z,102724.56
2019-05-11T22:43:09.317Z,102726.78
2019-05-11T22:45:42.899Z,102725.38
2019-05-11T22:48:15.146Z,102735.48
2019-05-11T22:50:48.156Z,102741.80
2019-05-11T22:53:21.283Z,102749.53
2019-05-11T22:55:53.525Z,102748.70
2019-05-11T22:58:25.747Z,102749.92
2019-05-11T23:00:59.829Z,102751.91
2019-05-11T23:03:31.892Z,102751.91
2019-05-11T23:06:04.095Z,102756.00
2019-05-11T23:08:38.564Z,102756.72
2019-05-11T23:11:10.824Z,102764.12
2019-05-11T23:13:43.134Z,102768.81
2019-05-11T23:16:15.361Z,102765.51
2019-05-11T23:18:48.072Z,102765.11
2019-05-11T23:21:20.553Z,102775.83
2019-05-11T23:23:52.765Z,102773.03
2019-05-11T23:26:25.015Z,102780.52
2019-05-11T23:28:57.963Z,102777.41
2019-05-11T23:31:31.460Z,102781.62
2019-05-11T23:34:03.695Z,102786.62
2019-05-11T23:36:38.132Z,102795.21
2019-05-11T23:39:09.849Z,102800.30
2019-05-11T23:41:42.097Z,102810.61
2019-05-11T23:44:14.359Z,102812.19
2019-05-11T23:46:47.828Z,102814.58
2019-05-11T23:49:20.307Z,102813.59
2019-05-11T23:51:52.489Z,102813.98
2019-05-11T23:54:24.699Z,102817.50
2019-05-11T23:56:58.330Z,102813.20
2019-05-11T23:59:30.608Z,102813.00
